Time;durP1;ratioP1;P1;durP2;ratioP2;P2;SDS_P1;SDS_P2;PMS_P1;PMS_P2;Temp;Humidity;BMP_temperature;BMP_pressure;BME280_temperature;BME280_humidity;BME280_pressure;Samples;Min_cycle;Max_cycle;Signal;HPM_P1;HPM_P2
2021/10/24 00:01:23;;;;;;;11.63;8.20;;;;;;;;;;5059871;28;20225;-82
2021/10/24 00:03:50;;;;;;;13.88;8.93;;;;;;;;;;5063348;28;20258;-81
2021/10/24 00:06:17;;;;;;;12.43;8.20;;;;;;;;;;5063443;28;20204;-82
2021/10/24 00:08:44;;;;;;;11.27;8.18;;;;;;;;;;5060731;28;20288;-81
2021/10/24 00:11:13;;;;;;;14.70;9.13;;;;;;;;;;5062988;28;20252;-82
2021/10/24 00:13:40;;;;;;;11.93;7.50;;;;;;;;;;5065010;28;20286;-81
2021/10/24 00:16:07;;;;;;;9.05;7.45;;;;;;;;;;5062560;28;20279;-81
2021/10/24 00:18:34;;;;;;;11.65;8.20;;;3.90;99.90;;;;;;5054925;28;20283;-81
2021/10/24 00:21:01;;;;;;;12.35;9.10;;;3.90;99.90;;;;;;5063399;28;20251;-81
2021/10/24 00:23:28;;;;;;;13.05;9.20;;;3.90;99.90;;;;;;5061828;28;20550;-81
2021/10/24 00:25:55;;;;;;;12.35;8.75;;;;;;;;;;5061277;28;20205;-82
2021/10/24 00:28:24;;;;;;;14.38;8.90;;;3.90;99.90;;;;;;5067529;28;20204;-81
2021/10/24 00:30:52;;;;;;;9.90;8.50;;;;;;;;;;5064564;28;20366;-81
2021/10/24 00:33:20;;;;;;;12.60;9.48;;;3.20;99.90;;;;;;5067630;28;20224;-81
2021/10/24 00:35:47;;;;;;;10.30;9.25;;;;;;;;;;5064927;28;20254;-81
2021/10/24 00:38:14;;;;;;;11.02;9.68;;;;;;;;;;5065849;28;20270;-81
2021/10/24 00:40:41;;;;;;;11.23;8.25;;;;;;;;;;5067181;28;20204;-81
2021/10/24 00:43:08;;;;;;;14.88;8.70;;;3.80;99.90;;;;;;5066313;28;20257;-82
2021/10/24 00:45:37;;;;;;;10.48;8.07;;;;;;;;;;5063103;28;20196;-82
2021/10/24 00:48:04;;;;;;;10.50;8.35;;;;;;;;;;5065734;28;20289;-81
2021/10/24 00:50:33;;;;;;;8.73;7.70;;;;;;;;;;5065616;28;20204;-81
2021/10/24 00:53:00;;;;;;;12.00;7.53;;;;;;;;;;5063878;28;20657;-81
2021/10/24 00:55:28;;;;;;;16.23;7.72;;;3.50;99.90;;;;;;5060294;28;20279;-81
2021/10/24 00:57:55;;;;;;;9.27;7.22;;;;;;;;;;5064934;28;20217;-81
2021/10/24 01:00:23;;;;;;;8.30;6.47;;;;;;;;;;5062140;28;20278;-81
2021/10/24 01:02:51;;;;;;;7.85;7.05;;;;;;;;;;5067232;28;20612;-81
2021/10/24 01:05:19;;;;;;;9.80;7.60;;;;;;;;;;5063905;28;20262;-81
2021/10/24 01:07:49;;;;;;;11.77;8.52;;;3.30;99.90;;;;;;5064327;28;20241;-81
2021/10/24 01:10:17;;;;;;;11.25;7.22;;;3.30;99.90;;;;;;5064638;28;20227;-83
2021/10/24 01:12:46;;;;;;;10.38;7.10;;;3.20;99.90;;;;;;5065781;28;20204;-81
2021/10/24 01:15:13;;;;;;;10.55;6.95;;;;;;;;;;5067753;28;20230;-81
2021/10/24 01:17:40;;;;;;;9.88;7.03;;;;;;;;;;5066980;28;20713;-82
2021/10/24 01:20:14;;;;;;;11.07;8.02;;;3.00;99.90;;;;;;5064431;28;20231;-81
2021/10/24 01:22:43;;;;;;;9.35;6.97;;;;;;;;;;5067055;28;20204;-81
2021/10/24 01:25:10;;;;;;;8.50;7.00;;;3.00;99.90;;;;;;5065521;28;20293;-81
2021/10/24 01:27:38;;;;;;;8.68;7.28;;;3.10;99.90;;;;;;5064121;28;20727;-81
2021/10/24 01:30:06;;;;;;;8.70;6.82;;;2.80;99.90;;;;;;5066055;28;20289;-81
2021/10/24 01:32:33;;;;;;;14.80;6.40;;;2.80;99.90;;;;;;5063951;28;20836;-81
2021/10/24 01:35:00;;;;;;;7.38;6.03;;;;;;;;;;5063014;28;20292;-81
2021/10/24 01:37:34;;;;;;;9.38;7.32;;;2.90;99.90;;;;;;5062655;28;20244;-81
2021/10/24 01:40:06;;;;;;;10.45;7.80;;;2.80;99.90;;;;;;5065191;28;20282;-82
2021/10/24 01:42:33;;;;;;;10.38;6.15;;;;;;;;;;5067212;28;20287;-81
2021/10/24 01:45:07;;;;;;;10.90;6.40;;;2.80;99.90;;;;;;5063405;28;20196;-81
2021/10/24 01:47:34;;;;;;;11.15;6.75;;;2.80;99.90;;;;;;5062802;28;20196;-81
2021/10/24 01:50:01;;;;;;;10.05;4.88;;;;;;;;;;5059315;28;20285;-82
2021/10/24 01:52:28;;;;;;;9.88;6.75;;;2.90;99.90;;;;;;5064917;28;20225;-82
2021/10/24 01:54:55;;;;;;;10.70;6.32;;;;;;;;;;5065736;28;20201;-81
2021/10/24 01:57:24;;;;;;;8.40;6.63;;;;;;;;;;5061676;28;20216;-81
2021/10/24 01:59:51;;;;;;;8.90;6.55;;;;;;;;;;5063331;28;20207;-81
2021/10/24 02:02:18;;;;;;;8.68;7.18;;;;;;;;;;5064792;28;20282;-82
2021/10/24 02:04:46;;;;;;;13.15;6.90;;;;;;;;;;5067909;28;20235;-81
2021/10/24 02:07:13;;;;;;;7.57;5.90;;;;;;;;;;5063864;28;20579;-81
2021/10/24 02:09:40;;;;;;;8.80;6.03;;;;;;;;;;5065351;28;20265;-81
2021/10/24 02:12:07;;;;;;;7.03;5.03;;;;;;;;;;5063285;28;20807;-81
2021/10/24 02:14:36;;;;;;;5.70;5.10;;;;;;;;;;5064582;28;20192;-81
2021/10/24 02:17:03;;;;;;;5.60;5.10;;;;;;;;;;5058490;28;20280;-81
2021/10/24 02:19:30;;;;;;;10.52;6.47;;;2.70;99.90;;;;;;5063017;28;20263;-81
2021/10/24 02:21:57;;;;;;;9.10;5.90;;;;;;;;;;5063144;28;20200;-81
2021/10/24 02:24:24;;;;;;;11.02;5.40;;;2.00;99.90;;;;;;5065041;28;20276;-81
2021/10/24 02:26:51;;;;;;;5.32;4.82;;;3.00;99.90;;;;;;5060601;28;20199;-81
2021/10/24 02:29:18;;;;;;;7.90;5.57;;;2.40;99.90;;;;;;5065247;28;20196;-81
2021/10/24 02:31:46;;;;;;;7.30;5.65;;;;;;;;;;5061336;28;20219;-81
2021/10/24 02:34:13;;;;;;;7.30;5.80;;;2.30;99.90;;;;;;5058481;28;20310;-81
2021/10/24 02:36:40;;;;;;;6.35;5.05;;;2.40;99.90;;;;;;5060810;28;20258;-80
2021/10/24 02:39:07;;;;;;;5.85;5.25;;;;;;;;;;5066375;28;20363;-81
2021/10/24 02:41:35;;;;;;;6.32;5.72;;;;;;;;;;5062172;28;20243;-80
2021/10/24 02:44:02;;;;;;;7.30;5.95;;;3.00;99.90;;;;;;5064777;28;20239;-81
2021/10/24 02:46:29;;;;;;;6.95;6.15;;;2.30;99.90;;;;;;5061206;28;20253;-81
2021/10/24 02:48:57;;;;;;;8.05;6.00;;;2.20;99.90;;;;;;5064276;28;20228;-81
2021/10/24 02:51:24;;;;;;;6.30;5.70;;;;;;;;;;5059380;28;20649;-81
2021/10/24 02:53:51;;;;;;;9.63;5.70;;;2.40;99.90;;;;;;5064710;28;20625;-81
2021/10/24 02:56:18;;;;;;;12.38;5.65;;;2.20;99.90;;;;;;5060645;28;20246;-81
2021/10/24 02:58:45;;;;;;;8.18;6.45;;;;;;;;;;5058791;28;20268;-81
2021/10/24 03:01:12;;;;;;;6.30;5.63;;;2.30;99.90;;;;;;5063537;28;20243;-81
2021/10/24 03:03:39;;;;;;;9.63;6.85;;;;;;;;;;5062279;28;20585;-81
2021/10/24 03:06:07;;;;;;;6.68;5.55;;;;;;;;;;5065245;28;20198;-82
2021/10/24 03:08:35;;;;;;;7.35;5.50;;;;;;;;;;5065034;28;20192;-81
2021/10/24 03:11:02;;;;;;;8.45;6.75;;;;;;;;;;5061876;28;20195;-81
2021/10/24 03:13:29;;;;;;;8.20;7.10;;;;;;;;;;5064696;28;20310;-81
2021/10/24 03:15:57;;;;;;;8.10;6.20;;;;;;;;;;5057159;28;20220;-81
2021/10/24 03:18:24;;;;;;;9.35;7.05;;;;;;;;;;5060862;28;20691;-81
2021/10/24 03:20:51;;;;;;;8.25;7.35;;;2.30;99.90;;;;;;5063775;28;20196;-81
2021/10/24 03:23:19;;;;;;;8.15;5.82;;;2.00;99.90;;;;;;5063945;28;20218;-81
2021/10/24 03:25:46;;;;;;;12.45;7.15;;;;;;;;;;5060639;28;20194;-81
2021/10/24 03:28:14;;;;;;;8.60;6.30;;;;;;;;;;5061936;28;20458;-81
2021/10/24 03:30:41;;;;;;;14.18;7.32;;;;;;;;;;5062250;28;20286;-81
2021/10/24 03:33:08;;;;;;;8.52;7.63;;;;;;;;;;5063681;28;20272;-81
2021/10/24 03:35:35;;;;;;;6.75;5.55;;;;;;;;;;5061466;28;20228;-81
2021/10/24 03:38:02;;;;;;;7.75;6.40;;;;;;;;;;5063308;28;20298;-81
2021/10/24 03:40:31;;;;;;;10.02;7.07;;;2.20;99.90;;;;;;5058826;28;20743;-82
2021/10/24 03:42:58;;;;;;;8.23;6.35;;;2.30;99.90;;;;;;5066781;28;20200;-81
2021/10/24 03:45:25;;;;;;;8.40;6.32;;;;;;;;;;5060277;28;20223;-81
2021/10/24 03:47:52;;;;;;;6.32;5.57;;;;;;;;;;5063875;28;20222;-81
2021/10/24 03:50:19;;;;;;;8.63;5.88;;;;;;;;;;5059836;28;20254;-81
2021/10/24 03:52:47;;;;;;;9.20;6.55;;;2.00;99.90;;;;;;5062767;28;20271;-81
2021/10/24 03:55:14;;;;;;;8.05;6.95;;;;;;;;;;5059126;28;21065;-81
2021/10/24 03:57:43;;;;;;;7.35;6.05;;;2.20;99.90;;;;;;5062619;28;20232;-81
2021/10/24 04:00:12;;;;;;;8.13;6.63;;;2.20;99.90;;;;;;5064088;28;20230;-83
2021/10/24 04:02:50;;;;;;;7.25;5.35;;;;;;;;;;5067239;28;20199;-82
2021/10/24 04:05:18;;;;;;;5.97;5.38;;;;;;;;;;5065060;28;20223;-81
2021/10/24 04:07:45;;;;;;;6.30;5.70;;;;;;;;;;5067587;28;20265;-82
2021/10/24 04:10:12;;;;;;;11.05;6.65;;;;;;;;;;5061543;28;20285;-82
2021/10/24 04:12:39;;;;;;;11.38;6.00;;;;;;;;;;5066895;28;20218;-82
2021/10/24 04:15:08;;;;;;;8.82;6.72;;;;;;;;;;5063204;28;20227;-82
2021/10/24 04:17:36;;;;;;;7.38;6.20;;;;;;;;;;5066887;28;20231;-82
2021/10/24 04:20:04;;;;;;;6.90;5.20;;;2.10;99.90;;;;;;5065007;28;20204;-82
2021/10/24 04:22:32;;;;;;;7.10;5.85;;;;;;;;;;5068699;28;20253;-82
2021/10/24 04:24:59;;;;;;;6.97;5.65;;;;;;;;;;5066417;28;20728;-82
2021/10/24 04:27:26;;;;;;;5.35;4.78;;;2.00;99.90;;;;;;5061114;28;20202;-83
2021/10/24 04:29:53;;;;;;;9.82;6.50;;;;;;;;;;5064968;28;20238;-83
2021/10/24 04:32:21;;;;;;;7.28;5.25;;;;;;;;;;5067418;28;20234;-82
2021/10/24 04:34:49;;;;;;;8.32;5.35;;;;;;;;;;5064199;28;20560;-82
2021/10/24 04:37:16;;;;;;;5.35;4.75;;;;;;;;;;5064280;28;20227;-82
2021/10/24 04:39:43;;;;;;;10.75;5.82;;;;;;;;;;5064502;28;20635;-82
2021/10/24 04:42:11;;;;;;;7.68;4.63;;;;;;;;;;5066753;28;20279;-82
2021/10/24 04:44:38;;;;;;;11.27;5.38;;;2.10;99.90;;;;;;5064642;28;20578;-82
2021/10/24 04:47:06;;;;;;;7.10;5.47;;;;;;;;;;5063386;28;20227;-84
2021/10/24 04:49:34;;;;;;;6.10;4.80;;;;;;;;;;5059740;28;20786;-81
2021/10/24 04:52:01;;;;;;;7.30;4.57;;;;;;;;;;5064761;28;20287;-81
2021/10/24 04:54:29;;;;;;;6.22;4.45;;;;;;;;;;5066060;28;20204;-81
2021/10/24 04:56:56;;;;;;;6.78;4.40;;;;;;;;;;5061816;28;20653;-82
2021/10/24 04:59:24;;;;;;;8.15;5.57;;;;;;;;;;5068258;28;20570;-83
2021/10/24 05:01:51;;;;;;;5.28;4.10;;;;;;;;;;5062560;28;20238;-82
2021/10/24 05:04:19;;;;;;;8.25;5.55;;;;;;;;;;5064683;28;20287;-83
2021/10/24 05:06:48;;;;;;;5.13;4.03;;;;;;;;;;5062164;28;20204;-81
2021/10/24 05:09:17;;;;;;;5.55;4.60;;;;;;;;;;5067255;28;20278;-82
2021/10/24 05:11:44;;;;;;;8.70;5.45;;;;;;;;;;5066538;28;20208;-81
2021/10/24 05:14:12;;;;;;;8.57;4.50;;;;;;;;;;5064300;28;20285;-82
2021/10/24 05:16:39;;;;;;;8.18;4.68;;;;;;;;;;5063412;28;20206;-81
2021/10/24 05:19:06;;;;;;;5.05;4.45;;;;;;;;;;5066430;28;20219;-82
2021/10/24 05:21:33;;;;;;;5.63;4.45;;;;;;;;;;5064205;28;20704;-81
2021/10/24 05:24:03;;;;;;;7.28;5.57;;;;;;;;;;5066408;28;20730;-82
2021/10/24 05:26:31;;;;;;;5.53;4.45;;;;;;;;;;5063554;28;20567;-81
2021/10/24 05:28:58;;;;;;;6.90;5.32;;;;;;;;;;5067129;28;20204;-81
2021/10/24 05:31:25;;;;;;;5.32;4.82;;;;;;;;;;5065618;28;20231;-82
2021/10/24 05:33:52;;;;;;;13.98;5.80;;;;;;;;;;5071148;28;20210;-83
2021/10/24 05:36:20;;;;;;;4.60;4.20;;;;;;;;;;5069808;28;20234;-82
2021/10/24 05:38:47;;;;;;;5.57;5.03;;;;;;;;;;5069799;28;20251;-83
2021/10/24 05:41:15;;;;;;;5.60;5.03;;;;;;;;;;5071227;28;20291;-81
2021/10/24 05:43:42;;;;;;;6.78;4.57;;;;;;;;;;5061168;28;20204;-82
2021/10/24 05:46:10;;;;;;;5.15;4.60;;;;;;;;;;5064086;28;20192;-82
2021/10/24 05:48:37;;;;;;;7.13;5.15;;;;;;;;;;5065033;28;20672;-83
2021/10/24 05:51:05;;;;;;;7.80;4.18;;;;;;;;;;5061690;28;20223;-82
2021/10/24 05:53:32;;;;;;;5.45;4.95;;;;;;;;;;5059421;28;20231;-84
2021/10/24 05:56:00;;;;;;;5.43;4.28;;;;;;;;;;5071790;28;20631;-82
2021/10/24 05:58:28;;;;;;;5.70;3.67;;;;;;;;;;5053965;28;20231;-82
2021/10/24 06:00:55;;;;;;;6.22;5.32;;;;;;;;;;5070661;28;20211;-82
2021/10/24 06:03:22;;;;;;;6.07;5.00;;;;;;;;;;5071275;28;20629;-82
2021/10/24 06:05:50;;;;;;;6.45;4.50;;;;;;;;;;5071566;28;20200;-84
2021/10/24 06:08:22;;;;;;;4.60;4.20;;;;;;;;;;5068880;28;20726;-82
2021/10/24 06:10:50;;;;;;;6.63;3.83;;;;;;;;;;5071904;28;20199;-85
2021/10/24 06:13:17;;;;;;;7.68;4.75;;;;;;;;;;5070825;28;20211;-84
2021/10/24 06:15:45;;;;;;;7.40;5.40;;;;;;;;;;5071392;28;20200;-84
2021/10/24 06:18:13;;;;;;;12.10;5.40;;;;;;;;;;5070057;28;20226;-82
2021/10/24 06:20:40;;;;;;;7.00;5.50;;;;;;;;;;5070161;28;20287;-84
2021/10/24 06:23:07;;;;;;;4.95;3.53;;;;;;;;;;5070317;28;20312;-82
2021/10/24 06:25:35;;;;;;;6.90;5.10;;;;;;;;;;5070142;28;20307;-84
2021/10/24 06:28:02;;;;;;;7.82;5.70;;;;;;;;;;5069798;28;20200;-83
2021/10/24 06:30:29;;;;;;;5.88;4.97;;;1.90;99.90;;;;;;5070220;28;20231;-82
2021/10/24 06:32:57;;;;;;;6.78;4.50;;;;;;;;;;5068475;28;20247;-82
2021/10/24 06:35:24;;;;;;;6.30;4.47;;;;;;;;;;5068369;28;20261;-85
2021/10/24 06:37:52;;;;;;;5.63;5.00;;;;;;;;;;5064331;28;20633;-84
2021/10/24 06:40:19;;;;;;;12.02;5.05;;;;;;;;;;5066269;28;20621;-85
2021/10/24 06:42:46;;;;;;;9.63;5.45;;;;;;;;;;5069173;28;20621;-85
2021/10/24 06:45:14;;;;;;;5.82;5.13;;;;;;;;;;5062597;28;20223;-84
2021/10/24 06:47:41;;;;;;;6.60;4.97;;;;;;;;;;5063044;28;20257;-84
2021/10/24 06:50:11;;;;;;;5.40;4.88;;;2.10;99.90;;;;;;5062869;28;20200;-82
2021/10/24 06:52:39;;;;;;;6.25;4.80;;;;;;;;;;5059326;28;20225;-84
2021/10/24 06:55:06;;;;;;;7.07;5.57;;;4.20;99.90;;;;;;5064218;28;20242;-82
2021/10/24 06:57:48;;;;;;;9.55;6.50;;;2.30;99.90;;;;;;5060934;28;20224;-85
2021/10/24 07:00:19;;;;;;;7.38;5.65;;;2.60;99.90;;;;;;5063360;28;20295;-84
2021/10/24 07:02:47;;;;;;;9.65;6.90;;;;;;;;;;5063300;28;20208;-84
2021/10/24 07:05:16;;;;;;;10.38;5.97;;;2.60;99.90;;;;;;5062428;28;20197;-83
2021/10/24 07:07:43;;;;;;;10.18;6.15;;;2.80;99.90;;;;;;5064168;28;20227;-85
2021/10/24 07:10:11;;;;;;;7.30;6.05;;;2.80;99.90;;;;;;5063578;28;21004;-84
2021/10/24 07:12:39;;;;;;;6.88;6.07;;;2.90;99.90;;;;;;5063301;28;20328;-84
2021/10/24 07:15:08;;;;;;;6.30;5.70;;;2.80;99.90;;;;;;5063759;28;20287;-83
2021/10/24 07:17:35;;;;;;;6.88;5.93;;;3.50;99.90;;;;;;5061436;28;20227;-82
2021/10/24 07:20:02;;;;;;;7.25;6.55;;;3.10;99.90;;;;;;5062616;28;20250;-84
2021/10/24 07:22:31;;;;;;;8.77;7.72;;;3.30;99.90;;;;;;5061132;28;20231;-82
2021/10/24 07:24:58;;;;;;;9.75;7.03;;;;;;;;;;5061017;28;20273;-82
2021/10/24 07:27:25;;;;;;;12.43;7.15;;;;;;;;;;5058403;28;20228;-83
2021/10/24 07:29:52;;;;;;;9.40;6.82;;;;;;;;;;5067123;28;20306;-83
2021/10/24 07:32:22;;;;;;;8.82;7.35;;;;;;;;;;5061230;28;20262;-83
2021/10/24 07:34:50;;;;;;;9.95;7.65;;;;;;;;;;5067940;28;20204;-81
2021/10/24 07:37:17;;;;;;;7.03;6.32;;;;;;;;;;5067813;28;20279;-82
2021/10/24 07:39:45;;;;;;;12.55;6.95;;;4.20;99.90;;;;;;5067928;28;20264;-82
2021/10/24 07:42:13;;;;;;;14.90;7.60;;;;;;;;;;5067909;28;20209;-82
2021/10/24 07:44:40;;;;;;;9.18;7.75;;;;;;;;;;5067616;28;20245;-82
2021/10/24 07:47:07;;;;;;;11.30;7.95;;;;;;;;;;5068549;28;20203;-82
2021/10/24 07:49:35;;;;;;;10.70;7.95;;;;;;;;;;5069046;28;20345;-82
2021/10/24 07:52:02;;;;;;;10.10;8.02;;;;;;;;;;5078221;28;20287;-83
2021/10/24 07:54:30;;;;;;;10.05;8.70;;;;;;;;;;5068899;28;20284;-83
2021/10/24 07:56:58;;;;;;;11.27;6.65;;;;;;;;;;5067931;28;20216;-83
2021/10/24 07:59:25;;;;;;;7.10;6.20;;;;;;;;;;5070383;28;20222;-82
2021/10/24 08:01:53;;;;;;;7.55;6.35;;;;;;;;;;5069317;28;20291;-82
2021/10/24 08:04:20;;;;;;;7.18;5.97;;;;;;;;;;5067510;28;20242;-82
2021/10/24 08:06:47;;;;;;;7.15;6.22;;;;;;;;;;5052616;28;20671;-82
2021/10/24 08:09:15;;;;;;;7.97;6.28;;;;;;;;;;5069056;28;20208;-82
2021/10/24 08:11:43;;;;;;;8.23;6.85;;;;;;;;;;5070298;28;20600;-81
2021/10/24 08:14:13;;;;;;;7.03;6.00;;;6.20;99.60;;;;;;5070330;28;20203;-83
2021/10/24 08:16:49;;;;;;;10.25;6.72;;;;;;;;;;5067236;28;20202;-82
2021/10/24 08:19:18;;;;;;;8.02;5.85;;;;;;;;;;5068625;28;20217;-82
2021/10/24 08:21:46;;;;;;;6.45;5.80;;;6.50;98.00;;;;;;5052856;28;20655;-82
2021/10/24 08:24:13;;;;;;;10.23;6.78;;;;;;;;;;5070114;28;20209;-82
2021/10/24 08:26:41;;;;;;;9.73;6.45;;;;;;;;;;5069785;28;20283;-82
2021/10/24 08:29:08;;;;;;;9.75;7.57;;;;;;;;;;5070053;28;20203;-83
2021/10/24 08:31:37;;;;;;;7.55;6.75;;;;;;;;;;5069943;28;20217;-82
2021/10/24 08:34:04;;;;;;;7.18;5.85;;;7.10;99.90;;;;;;5069929;28;20266;-84
2021/10/24 08:36:32;;;;;;;8.80;6.40;;;;;;;;;;5069070;28;20880;-83
2021/10/24 08:38:59;;;;;;;9.15;7.07;;;;;;;;;;5070031;28;20206;-81
2021/10/24 08:41:28;;;;;;;16.08;6.40;;;7.50;99.90;;;;;;5070010;28;20542;-81
2021/10/24 08:43:58;;;;;;;12.05;5.78;;;7.50;97.80;;;;;;5053473;28;20573;-84
2021/10/24 08:46:25;;;;;;;9.68;6.55;;;;;;;;;;5069651;28;20226;-83
2021/10/24 08:48:55;;;;;;;14.60;7.75;;;;;;;;;;5072978;28;20386;-84
2021/10/24 08:51:22;;;;;;;7.15;6.03;;;7.80;99.90;;;;;;5073855;28;20198;-84
2021/10/24 08:53:50;;;;;;;7.68;6.15;;;7.70;97.80;;;;;;5073404;28;20208;-84
2021/10/24 08:56:18;;;;;;;8.82;6.28;;;8.10;99.90;;;;;;5073146;28;20231;-82
2021/10/24 08:58:46;;;;;;;8.77;6.30;;;;;;;;;;5073240;28;20296;-83
2021/10/24 09:01:13;;;;;;;6.80;6.10;;;;;;;;;;5073070;28;20224;-84
2021/10/24 09:03:40;;;;;;;7.40;5.75;;;;;;;;;;5073374;28;20332;-83
2021/10/24 09:06:09;;;;;;;8.85;6.03;;;;;;;;;;5071415;28;20246;-82
2021/10/24 09:08:38;;;;;;;8.38;5.05;;;8.30;97.20;;;;;;5073165;28;20273;-83
2021/10/24 09:11:05;;;;;;;9.60;6.28;;;8.20;97.40;;;;;;5073422;28;20247;-84
2021/10/24 09:13:34;;;;;;;10.90;8.35;;;8.40;97.80;;;;;;5073360;28;20219;-84
2021/10/24 09:16:03;;;;;;;6.47;5.70;;;8.40;97.30;;;;;;5073184;28;20200;-84
2021/10/24 09:18:32;;;;;;;8.95;5.70;;;8.40;97.20;;;;;;5073232;28;20203;-84
2021/10/24 09:21:21;;;;;;;9.00;5.57;;;8.30;96.70;;;;;;5072912;28;20223;-84
2021/10/24 09:23:51;;;;;;;5.70;5.13;;;8.60;95.30;;;;;;5073094;28;20261;-84
2021/10/24 09:26:22;;;;;;;10.43;4.67;;;8.70;96.10;;;;;;5071499;28;20732;-85
2021/10/24 09:29:06;;;;;;;4.97;4.47;;;8.60;95.60;;;;;;5072769;28;20621;-84
2021/10/24 09:31:34;;;;;;;8.00;4.90;;;8.50;95.10;;;;;;5071113;28;20649;-84
2021/10/24 09:34:15;;;;;;;5.97;4.53;;;8.60;95.60;;;;;;5072427;28;20593;-85
2021/10/24 09:36:51;;;;;;;5.37;4.30;;;;;;;;;;5071446;28;20687;-84
2021/10/24 09:39:18;;;;;;;5.90;4.40;;;;;;;;;;5072421;28;21145;-83
2021/10/24 09:41:46;;;;;;;5.50;4.63;;;;;;;;;;5072205;28;20614;-83
2021/10/24 09:44:15;;;;;;;6.20;4.70;;;9.10;94.80;;;;;;5072484;28;20714;-83
2021/10/24 09:46:58;;;;;;;4.53;3.80;;;9.20;95.00;;;;;;5070286;28;20622;-83
2021/10/24 09:49:26;;;;;;;7.00;3.80;;;9.20;93.70;;;;;;5070227;28;20695;-84
2021/10/24 09:51:55;;;;;;;6.00;5.40;;;;;;;;;;5072286;28;20669;-83
2021/10/24 09:54:24;;;;;;;7.43;4.00;;;9.20;92.00;;;;;;5072010;28;21227;-82
2021/10/24 09:56:52;;;;;;;5.63;4.40;;;9.10;92.60;;;;;;5071508;28;20629;-83
2021/10/24 09:59:21;;;;;;;4.47;3.80;;;9.40;93.70;;;;;;5071533;28;20618;-84
2021/10/24 10:01:52;;;;;;;7.43;4.17;;;9.40;93.00;;;;;;5071581;28;20664;-83
2021/10/24 10:04:20;;;;;;;4.43;4.03;;;;;;;;;;5072157;28;20621;-81
2021/10/24 10:06:50;;;;;;;4.50;4.10;;;;;;;;;;5071261;28;20746;-83
2021/10/24 10:09:18;;;;;;;4.47;4.07;;;;;;;;;;5072107;28;20610;-84
2021/10/24 10:11:55;;;;;;;4.27;3.87;;;9.60;94.60;;;;;;5070639;28;20675;-84
2021/10/24 10:14:25;;;;;;;7.03;3.87;;;9.60;94.30;;;;;;5060059;28;20977;-83
2021/10/24 10:16:57;;;;;;;6.80;5.87;;;9.50;93.40;;;;;;5071326;28;20614;-83
2021/10/24 10:19:32;;;;;;;4.20;3.87;;;9.70;93.50;;;;;;5054472;28;21248;-82
2021/10/24 10:22:28;;;;;;;5.27;4.13;;;9.50;93.20;;;;;;5051525;28;20626;-82
2021/10/24 10:24:58;;;;;;;5.20;4.30;;;9.70;92.80;;;;;;5051464;28;20603;-82
2021/10/24 10:27:40;;;;;;;4.23;3.83;;;9.90;93.00;;;;;;5051330;28;20720;-83
2021/10/24 10:30:09;;;;;;;4.63;4.13;;;9.90;93.50;;;;;;5056226;28;20630;-84
2021/10/24 10:32:39;;;;;;;5.33;4.83;;;10.00;92.00;;;;;;5071521;28;20711;-82
2021/10/24 10:35:10;;;;;;;6.80;4.70;;;10.00;91.70;;;;;;5071147;28;20625;-83
2021/10/24 10:37:42;;;;;;;4.87;4.47;;;;;;;;;;5063157;28;20627;-81
2021/10/24 10:40:15;;;;;;;5.67;4.53;;;9.80;91.90;;;;;;5058851;28;21046;-83
2021/10/24 10:42:54;;;;;;;4.80;4.23;;;10.20;92.50;;;;;;5071392;28;20609;-83
2021/10/24 10:45:45;;;;;;;4.80;4.30;;;10.20;95.80;;;;;;5069516;28;20657;-82
2021/10/24 10:48:34;;;;;;;5.60;5.13;;;9.90;92.70;;;;;;5061612;28;20626;-84
2021/10/24 10:51:02;;;;;;;4.73;4.33;;;;;;;;;;5070984;28;20606;-82
2021/10/24 10:54:03;;;;;;;4.20;3.80;;;10.30;97.40;;;;;;5070852;28;20691;-84
2021/10/24 10:56:46;;;;;;;5.40;4.57;;;10.20;94.00;;;;;;5070555;28;20676;-83
2021/10/24 10:59:29;;;;;;;6.10;5.37;;;10.30;91.90;;;;;;5071039;28;20942;-82
2021/10/24 11:01:56;;;;;;;5.03;4.10;;;;;;;;;;5070678;28;20745;-83
2021/10/24 11:04:23;;;;;;;5.57;4.20;;;;;;;;;;5069378;28;21215;-84
2021/10/24 11:06:57;;;;;;;6.23;4.80;;;10.40;92.60;;;;;;5070113;28;20687;-81
2021/10/24 11:09:47;;;;;;;5.73;4.60;;;10.60;92.30;;;;;;5070807;28;21021;-81
2021/10/24 11:12:50;;;;;;;5.10;4.23;;;10.50;90.00;;;;;;5069563;28;20622;-81
2021/10/24 11:15:25;;;;;;;4.13;3.67;;;10.40;92.60;;;;;;5069592;28;20621;-82
2021/10/24 11:17:53;;;;;;;6.20;5.27;;;;;;;;;;5070180;28;20622;-82
2021/10/24 11:20:26;;;;;;;5.83;4.90;;;10.70;91.30;;;;;;5070421;28;20688;-82
2021/10/24 11:22:56;;;;;;;4.40;4.10;;;10.70;92.60;;;;;;5070231;28;20628;-82
2021/10/24 11:25:28;;;;;;;5.47;4.47;;;10.80;92.30;;;;;;5070300;28;21161;-81
2021/10/24 11:27:58;;;;;;;6.00;5.40;;;;;;;;;;5069792;28;20679;-82
2021/10/24 11:30:26;;;;;;;4.87;4.37;;;;;;;;;;5070315;28;20756;-80
2021/10/24 11:32:55;;;;;;;5.73;5.23;;;10.90;91.70;;;;;;5070492;28;20614;-81
2021/10/24 11:35:24;;;;;;;5.90;4.57;;;10.90;91.00;;;;;;5070221;28;20735;-80
2021/10/24 11:37:53;;;;;;;4.83;4.30;;;10.90;92.20;;;;;;5069983;28;20618;-82
2021/10/24 11:40:23;;;;;;;5.80;5.13;;;11.00;91.90;;;;;;5070350;28;20657;-81
2021/10/24 11:42:57;;;;;;;5.93;4.50;;;;;;;;;;5070400;28;20632;-82
2021/10/24 11:45:26;;;;;;;5.80;4.80;;;11.20;92.10;;;;;;5070186;28;21361;-82
2021/10/24 11:47:57;;;;;;;11.37;4.93;;;;;;;;;;5068615;28;21021;-81
2021/10/24 11:50:35;;;;;;;5.47;3.77;;;;;;;;;;5065384;28;20617;-82
2021/10/24 11:53:02;;;;;;;8.60;4.43;;;;;;;;;;5063067;28;20641;-82
2021/10/24 11:55:29;;;;;;;6.10;4.67;;;;;;;;;;5064849;28;20696;-81
2021/10/24 11:58:05;;;;;;;7.60;5.67;;;;;;;;;;5062063;28;20657;-82
2021/10/24 12:00:49;;;;;;;6.83;5.50;;;11.40;91.20;;;;;;5061152;28;20649;-80
2021/10/24 12:03:23;;;;;;;6.00;5.30;;;;;;;;;;5064873;28;20633;-82
2021/10/24 12:05:51;;;;;;;5.90;5.30;;;;;;;;;;5064525;28;20668;-82
2021/10/24 12:08:19;;;;;;;5.80;5.20;;;;;;;;;;5062525;28;20653;-82
2021/10/24 12:10:49;;;;;;;9.60;5.23;;;11.50;91.70;;;;;;5061489;28;20625;-83
2021/10/24 12:13:33;;;;;;;6.03;5.43;;;11.50;91.60;;;;;;5055315;28;20661;-81
2021/10/24 12:16:02;;;;;;;6.03;5.33;;;;;;;;;;5060185;28;20622;-81
2021/10/24 12:18:33;;;;;;;6.40;5.67;;;11.70;90.80;;;;;;5061487;28;20625;-81
2021/10/24 12:21:01;;;;;;;6.30;5.67;;;11.70;90.70;;;;;;5063806;28;20745;-80
2021/10/24 12:23:30;;;;;;;6.10;5.50;;;11.70;90.70;;;;;;5065066;28;20688;-82
2021/10/24 12:25:59;;;;;;;4.70;4.27;;;12.00;91.00;;;;;;5066801;28;21202;-82
2021/10/24 12:28:30;;;;;;;11.80;5.67;;;11.80;90.90;;;;;;5065319;28;20717;-80
2021/10/24 12:30:59;;;;;;;6.17;5.57;;;12.70;90.60;;;;;;5063386;28;20765;-81
2021/10/24 12:33:29;;;;;;;5.60;5.10;;;11.90;90.70;;;;;;5066584;28;20685;-81
2021/10/24 12:35:59;;;;;;;7.13;5.53;;;11.80;90.20;;;;;;5066318;28;20992;-81
2021/10/24 12:38:47;;;;;;;6.50;5.50;;;12.00;90.20;;;;;;5066612;28;21174;-81
2021/10/24 12:41:14;;;;;;;5.27;4.77;;;;;;;;;;5067470;28;20686;-80
2021/10/24 12:43:51;;;;;;;9.73;5.47;;;12.10;88.60;;;;;;5067372;28;20679;-81
2021/10/24 12:46:27;;;;;;;6.20;5.60;;;;;;;;;;5069565;28;20649;-80
2021/10/24 12:48:56;;;;;;;5.03;4.50;;;12.00;88.20;;;;;;5064105;28;20768;-80
2021/10/24 12:51:25;;;;;;;5.60;4.70;;;12.10;90.10;;;;;;5066217;28;21060;-81
2021/10/24 12:53:53;;;;;;;5.80;4.77;;;12.30;86.50;;;;;;5067436;28;20716;-81
2021/10/24 12:56:20;;;;;;;6.13;4.93;;;;;;;;;;5063614;28;20627;-80
2021/10/24 12:58:48;;;;;;;5.43;4.93;;;;;;;;;;5064913;28;20658;-80
2021/10/24 13:01:22;;;;;;;5.13;4.63;;;12.30;82.70;;;;;;5067115;28;20677;-81
2021/10/24 13:03:49;;;;;;;7.93;4.83;;;;;;;;;;5064486;28;20605;-81
2021/10/24 13:06:18;;;;;;;5.83;5.23;;;;;;;;;;5065955;28;20716;-81
2021/10/24 13:08:45;;;;;;;5.73;5.23;;;;;;;;;;5066687;28;20620;-79
2021/10/24 13:11:13;;;;;;;5.23;4.73;;;;;;;;;;5068918;28;20626;-80
2021/10/24 13:13:40;;;;;;;6.03;4.30;;;;;;;;;;5066471;28;20705;-80
2021/10/24 13:16:08;;;;;;;6.87;5.57;;;;;;;;;;5070306;28;20615;-81
2021/10/24 13:18:35;;;;;;;6.53;5.30;;;;;;;;;;5064976;28;20955;-80
2021/10/24 13:21:04;;;;;;;5.73;5.00;;;;;;;;;;5062122;28;20681;-81
2021/10/24 13:23:32;;;;;;;7.57;5.10;;;;;;;;;;5069910;28;21227;-81
2021/10/24 13:25:59;;;;;;;8.23;5.17;;;;;;;;;;5065049;28;21221;-81
2021/10/24 13:28:27;;;;;;;7.03;4.83;;;;;;;;;;5065147;28;20670;-83
2021/10/24 13:30:54;;;;;;;4.17;3.77;;;12.50;86.30;;;;;;5061850;28;20646;-80
2021/10/24 13:33:21;;;;;;;5.43;4.43;;;;;;;;;;5063521;28;20646;-81
2021/10/24 13:35:49;;;;;;;5.27;4.77;;;;;;;;;;5069375;28;20716;-81
2021/10/24 13:38:16;;;;;;;7.13;5.47;;;;;;;;;;5066586;28;21085;-81
2021/10/24 13:40:48;;;;;;;5.70;4.20;;;;;;;;;;5067327;28;20710;-82
2021/10/24 13:43:16;;;;;;;6.93;4.17;;;;;;;;;;5061648;28;20654;-82
2021/10/24 13:45:43;;;;;;;4.87;4.30;;;;;;;;;;5064150;28;20630;-81
2021/10/24 13:48:10;;;;;;;6.00;4.60;;;;;;;;;;5064404;28;21188;-82
2021/10/24 13:50:37;;;;;;;4.87;4.37;;;;;;;;;;5063247;28;20708;-82
2021/10/24 13:53:04;;;;;;;5.60;5.00;;;;;;;;;;5063226;28;20735;-81
2021/10/24 13:55:32;;;;;;;5.27;4.77;;;;;;;;;;5029998;28;22255;-81
2021/10/24 13:58:00;;;;;;;6.73;5.10;;;;;;;;;;5062213;28;21169;-81
2021/10/24 14:00:28;;;;;;;4.77;4.30;;;;;;;;;;5064182;28;21169;-82
2021/10/24 14:02:56;;;;;;;8.43;5.03;;;;;;;;;;5066270;28;21287;-82
2021/10/24 14:05:26;;;;;;;5.10;4.50;;;;;;;;;;5065329;28;20627;-81
2021/10/24 14:07:54;;;;;;;6.37;5.20;;;;;;;;;;5065876;28;20655;-82